createdAt,value
2022-10-22T00:01:04.068Z,12.54
2022-10-22T00:03:31.748Z,12.53
2022-10-22T00:05:59.170Z,12.50
2022-10-22T00:08:26.664Z,12.46
2022-10-22T00:10:54.040Z,12.45
2022-10-22T00:13:22.268Z,12.46
2022-10-22T00:15:49.719Z,12.46
2022-10-22T00:18:17.070Z,12.46
2022-10-22T00:20:44.499Z,12.46
2022-10-22T00:23:11.863Z,12.45
2022-10-22T00:25:39.226Z,12.44
2022-10-22T00:28:06.685Z,12.43
2022-10-22T00:30:34.091Z,12.41
2022-10-22T00:33:01.471Z,12.41
2022-10-22T00:35:28.949Z,12.39
2022-10-22T00:37:56.306Z,12.36
2022-10-22T00:40:23.743Z,12.34
2022-10-22T00:42:51.151Z,12.32
2022-10-22T00:45:27.980Z,12.28
2022-10-22T00:48:00.203Z,12.25
2022-10-22T00:50:41.203Z,12.24
2022-10-22T00:53:18.263Z,12.21
2022-10-22T00:55:49.205Z,12.19
2022-10-22T00:58:21.151Z,12.17
2022-10-22T01:00:49.075Z,12.16
2022-10-22T01:03:17.106Z,12.13
2022-10-22T01:05:56.174Z,12.12
2022-10-22T01:08:58.142Z,12.08
2022-10-22T01:12:04.845Z,12.02
2022-10-22T01:15:12.637Z,11.98
2022-10-22T01:18:05.932Z,11.95
2022-10-22T01:20:45.351Z,11.93
2022-10-22T01:23:48.173Z,11.89
2022-10-22T01:26:37.237Z,11.82
2022-10-22T01:29:14.493Z,11.74
2022-10-22T01:31:51.488Z,11.71
2022-10-22T01:34:20.607Z,11.70
2022-10-22T01:36:50.323Z,11.69
2022-10-22T01:39:19.502Z,11.67
2022-10-22T01:41:47.164Z,11.65
2022-10-22T01:44:30.226Z,11.65
2022-10-22T01:47:15.754Z,11.62
2022-10-22T01:50:22.892Z,11.59
2022-10-22T01:53:12.906Z,11.54
2022-10-22T01:56:44.398Z,11.54
2022-10-22T01:59:52.718Z,11.49
2022-10-22T02:02:42.039Z,11.45
2022-10-22T02:05:26.610Z,11.41
2022-10-22T02:08:11.762Z,11.40
2022-10-22T02:10:43.548Z,11.38
2022-10-22T02:13:23.031Z,11.38
2022-10-22T02:15:53.209Z,11.37
2022-10-22T02:18:27.760Z,11.36
2022-10-22T02:20:56.032Z,11.34
2022-10-22T02:23:23.699Z,11.33
2022-10-22T02:26:01.868Z,11.30
2022-10-22T02:28:44.361Z,11.26
2022-10-22T02:31:21.633Z,11.21
2022-10-22T02:33:55.027Z,11.18
2022-10-22T02:36:24.941Z,11.16
2022-10-22T02:38:54.179Z,11.15
2022-10-22T02:41:21.612Z,11.16
2022-10-22T02:43:54.940Z,11.16
2022-10-22T02:46:24.281Z,11.15
2022-10-22T02:48:51.623Z,11.14
2022-10-22T02:51:19.033Z,11.14
2022-10-22T02:53:46.449Z,11.12
2022-10-22T02:56:14.256Z,11.11
2022-10-22T02:58:41.697Z,11.13
2022-10-22T03:01:11.268Z,11.15
2022-10-22T03:03:41.123Z,11.16
2022-10-22T03:06:17.281Z,11.17
2022-10-22T03:08:47.005Z,11.18
2022-10-22T03:11:14.584Z,11.18
2022-10-22T03:13:41.972Z,11.18
2022-10-22T03:16:09.358Z,11.20
2022-10-22T03:18:36.747Z,11.20
2022-10-22T03:21:28.200Z,11.19
2022-10-22T03:23:56.479Z,11.15
2022-10-22T03:26:25.235Z,11.16
2022-10-22T03:28:54.447Z,11.16
2022-10-22T03:31:21.836Z,11.16
2022-10-22T03:33:49.259Z,11.18
2022-10-22T03:36:16.738Z,11.19
2022-10-22T03:38:44.271Z,11.23
2022-10-22T03:41:11.722Z,11.25
2022-10-22T03:43:40.793Z,11.30
2022-10-22T03:46:08.267Z,11.31
2022-10-22T03:48:35.604Z,11.34
2022-10-22T03:51:03.027Z,11.35
2022-10-22T03:53:30.370Z,11.37
2022-10-22T03:55:57.812Z,11.40
2022-10-22T03:58:25.190Z,11.43
2022-10-22T04:00:52.785Z,11.44
2022-10-22T04:03:20.487Z,11.44
2022-10-22T04:05:47.815Z,11.44
2022-10-22T04:08:15.151Z,11.44
2022-10-22T04:10:42.499Z,11.44
2022-10-22T04:13:09.828Z,11.45
2022-10-22T04:15:37.210Z,11.46
2022-10-22T04:18:04.848Z,11.47
2022-10-22T04:20:32.216Z,11.50
2022-10-22T04:22:59.593Z,11.56
2022-10-22T04:25:26.966Z,11.60
2022-10-22T04:27:54.354Z,11.66
2022-10-22T04:30:22.240Z,11.71
2022-10-22T04:32:51.104Z,11.78
2022-10-22T04:35:18.530Z,11.84
2022-10-22T04:37:45.912Z,11.90
2022-10-22T04:40:13.304Z,11.94
2022-10-22T04:42:40.697Z,11.99
2022-10-22T04:45:09.001Z,12.04
2022-10-22T04:47:38.413Z,12.06
2022-10-22T04:50:07.096Z,12.11
2022-10-22T04:52:34.490Z,12.12
2022-10-22T04:55:01.832Z,12.14
2022-10-22T04:57:32.997Z,12.18
2022-10-22T05:00:00.401Z,12.19
2022-10-22T05:02:27.796Z,12.20
2022-10-22T05:04:55.145Z,12.23
2022-10-22T05:07:23.733Z,12.24
2022-10-22T05:09:51.165Z,12.25
2022-10-22T05:12:18.576Z,12.27
2022-10-22T05:14:46.170Z,12.29
2022-10-22T05:17:13.553Z,12.31
2022-10-22T05:19:40.876Z,12.32
2022-10-22T05:22:08.268Z,12.35
2022-10-22T05:24:37.097Z,12.37
2022-10-22T05:27:04.498Z,12.38
2022-10-22T05:29:31.904Z,12.41
2022-10-22T05:31:59.285Z,12.42
2022-10-22T05:34:26.678Z,12.44
2022-10-22T05:36:54.027Z,12.46
2022-10-22T05:39:21.386Z,12.50
2022-10-22T05:41:48.783Z,12.52
2022-10-22T05:44:16.133Z,12.56
2022-10-22T05:46:43.575Z,12.58
2022-10-22T05:49:16.058Z,12.63
2022-10-22T05:51:43.570Z,12.64
2022-10-22T05:54:22.052Z,12.68
2022-10-22T05:56:49.440Z,12.71
2022-10-22T05:59:16.915Z,12.75
2022-10-22T06:01:44.403Z,12.79
2022-10-22T06:04:13.396Z,12.81
2022-10-22T06:06:47.501Z,12.85
2022-10-22T06:09:30.757Z,12.89
2022-10-22T06:11:59.070Z,12.90
2022-10-22T06:14:28.023Z,12.93
2022-10-22T06:16:55.615Z,12.94
2022-10-22T06:19:26.731Z,12.95
2022-10-22T06:21:54.428Z,12.96
2022-10-22T06:24:21.802Z,12.98
2022-10-22T06:26:52.568Z,12.99
2022-10-22T06:29:20.472Z,12.98
2022-10-22T06:31:48.841Z,13.00
2022-10-22T06:34:18.843Z,13.01
2022-10-22T06:36:47.267Z,13.01
2022-10-22T06:39:17.670Z,13.02
2022-10-22T06:41:45.673Z,13.02
2022-10-22T06:44:19.035Z,13.02
2022-10-22T06:46:52.015Z,13.03
2022-10-22T06:49:21.148Z,13.03
2022-10-22T06:51:53.690Z,13.04
2022-10-22T06:54:22.916Z,13.07
2022-10-22T06:56:50.409Z,13.08
2022-10-22T06:59:17.884Z,13.12
2022-10-22T07:01:45.581Z,13.14
2022-10-22T07:04:13.037Z,13.17
2022-10-22T07:06:40.565Z,13.22
2022-10-22T07:09:08.021Z,13.25
2022-10-22T07:11:45.961Z,13.28
2022-10-22T07:14:14.560Z,13.30
2022-10-22T07:16:46.768Z,13.34
2022-10-22T07:19:14.667Z,13.37
2022-10-22T07:21:42.092Z,13.40
2022-10-22T07:24:09.467Z,13.44
2022-10-22T07:26:36.928Z,13.48
2022-10-22T07:29:05.801Z,13.54
2022-10-22T07:31:33.164Z,13.57
2022-10-22T07:34:00.614Z,13.58
2022-10-22T07:36:28.004Z,13.60
2022-10-22T07:38:58.174Z,13.62
2022-10-22T07:41:28.004Z,13.63
2022-10-22T07:43:56.797Z,13.66
2022-10-22T07:46:25.429Z,13.70
2022-10-22T07:48:53.622Z,13.75
2022-10-22T07:51:21.440Z,13.78
2022-10-22T07:53:48.895Z,13.80
2022-10-22T07:56:17.386Z,13.83
2022-10-22T07:58:44.748Z,13.85
2022-10-22T08:01:12.178Z,13.85
2022-10-22T08:03:39.638Z,13.86
2022-10-22T08:06:07.487Z,13.88
2022-10-22T08:08:35.026Z,13.89
2022-10-22T08:11:02.648Z,13.92
2022-10-22T08:13:30.635Z,13.94
2022-10-22T08:16:00.327Z,13.99
2022-10-22T08:18:28.984Z,14.03
2022-10-22T08:20:56.736Z,14.11
2022-10-22T08:23:26.190Z,14.16
2022-10-22T08:25:57.377Z,14.22
2022-10-22T08:28:25.145Z,14.28
2022-10-22T08:30:52.560Z,14.37
2022-10-22T08:33:20.117Z,14.44
2022-10-22T08:35:51.714Z,14.51
2022-10-22T08:38:19.658Z,14.54
2022-10-22T08:40:52.963Z,14.62
2022-10-22T08:43:41.706Z,14.74
2022-10-22T08:46:40.781Z,14.86
2022-10-22T08:49:24.693Z,14.96
2022-10-22T08:51:53.048Z,15.04
2022-10-22T08:54:36.678Z,15.14
2022-10-22T08:57:32.510Z,15.24
2022-10-22T09:00:24.105Z,15.32
2022-10-22T09:03:09.797Z,15.40
2022-10-22T09:05:56.389Z,15.52
2022-10-22T09:08:24.306Z,15.57
2022-10-22T09:11:03.931Z,15.64
2022-10-22T09:13:34.852Z,15.68
2022-10-22T09:16:19.236Z,15.75
2022-10-22T09:19:22.634Z,15.79
2022-10-22T09:22:07.876Z,15.81
2022-10-22T09:24:45.933Z,15.84
2022-10-22T09:27:21.443Z,15.88
2022-10-22T09:29:49.092Z,15.91
2022-10-22T09:32:18.423Z,15.92
2022-10-22T09:34:48.164Z,15.94
2022-10-22T09:37:27.792Z,15.95
2022-10-22T09:39:58.807Z,15.96
2022-10-22T09:42:26.440Z,15.96
2022-10-22T09:44:58.567Z,15.99
2022-10-22T09:48:01.200Z,16.01
2022-10-22T09:50:41.321Z,15.99
2022-10-22T09:53:25.922Z,15.97
2022-10-22T09:55:58.236Z,15.95
2022-10-22T09:58:27.648Z,15.94
2022-10-22T10:01:00.909Z,15.95
2022-10-22T10:03:35.672Z,15.95
2022-10-22T10:06:06.237Z,15.97
2022-10-22T10:08:34.011Z,15.97
2022-10-22T10:11:38.072Z,16.02
2022-10-22T10:14:28.820Z,16.07
2022-10-22T10:17:25.855Z,16.12
2022-10-22T10:20:16.388Z,16.16
2022-10-22T10:23:47.634Z,16.20
2022-10-22T10:26:18.606Z,16.23
2022-10-22T10:29:33.213Z,16.31
2022-10-22T10:32:15.281Z,16.38
2022-10-22T10:35:00.751Z,16.45
2022-10-22T10:37:36.881Z,16.51
2022-10-22T10:40:42.777Z,16.55
2022-10-22T10:43:37.661Z,16.56
2022-10-22T10:46:25.393Z,16.58
2022-10-22T10:49:06.027Z,16.62
2022-10-22T10:51:55.308Z,16.65
2022-10-22T10:54:54.363Z,16.70
2022-10-22T10:57:43.216Z,16.74
2022-10-22T11:00:21.354Z,16.80
2022-10-22T11:02:57.678Z,16.86
2022-10-22T11:05:52.766Z,16.93
2022-10-22T11:08:55.003Z,16.99
2022-10-22T11:11:48.712Z,17.07
2022-10-22T11:14:27.919Z,17.16
2022-10-22T11:17:35.522Z,17.30
2022-10-22T11:20:20.745Z,17.41
2022-10-22T11:23:18.141Z,17.48
2022-10-22T11:25:47.936Z,17.54
2022-10-22T11:28:33.915Z,17.60
2022-10-22T11:31:13.632Z,17.64
2022-10-22T11:34:31.974Z,17.73
2022-10-22T11:37:00.560Z,17.83
2022-10-22T11:39:40.595Z,17.98
2022-10-22T11:42:18.410Z,18.14
2022-10-22T11:44:49.571Z,18.17
2022-10-22T11:47:26.254Z,18.17
2022-10-22T11:50:16.566Z,18.17
2022-10-22T11:53:16.653Z,18.15
2022-10-22T11:55:51.657Z,18.13
2022-10-22T11:58:28.277Z,18.11
2022-10-22T12:01:19.713Z,18.09
2022-10-22T12:03:59.056Z,18.07
2022-10-22T12:06:29.389Z,18.06
2022-10-22T12:09:04.628Z,18.09
2022-10-22T12:11:51.039Z,18.14
2022-10-22T12:14:32.495Z,18.12
2022-10-22T12:17:12.343Z,18.09
2022-10-22T12:20:01.972Z,18.13
2022-10-22T12:22:37.530Z,18.20
2022-10-22T12:25:23.351Z,18.30
2022-10-22T12:27:54.904Z,18.33
2022-10-22T12:30:28.149Z,18.29
2022-10-22T12:33:01.908Z,18.26
2022-10-22T12:35:33.489Z,18.23
2022-10-22T12:38:08.214Z,18.22
2022-10-22T12:40:36.041Z,18.20
2022-10-22T12:43:25.784Z,18.19
2022-10-22T12:45:54.457Z,18.18
2022-10-22T12:48:34.284Z,18.16
2022-10-22T12:51:04.732Z,18.13
2022-10-22T12:53:37.714Z,18.10
2022-10-22T12:56:21.924Z,18.08
2022-10-22T12:58:59.058Z,18.05
2022-10-22T13:01:32.312Z,18.02
2022-10-22T13:04:19.388Z,18.02
2022-10-22T13:06:51.066Z,18.03
2022-10-22T13:09:27.661Z,18.06
2022-10-22T13:12:04.946Z,18.12
2022-10-22T13:14:38.036Z,18.18
2022-10-22T13:17:15.308Z,18.34
2022-10-22T13:20:07.556Z,18.50
2022-10-22T13:22:39.601Z,18.69
2022-10-22T13:25:13.024Z,18.83
2022-10-22T13:27:46.003Z,18.86
2022-10-22T13:30:35.627Z,18.86
2022-10-22T13:33:23.940Z,18.89
2022-10-22T13:35:51.359Z,18.90
2022-10-22T13:38:25.921Z,18.96
2022-10-22T13:40:53.775Z,18.96
2022-10-22T13:43:21.343Z,18.96
2022-10-22T13:45:55.596Z,18.95
2022-10-22T13:48:26.201Z,18.95
2022-10-22T13:50:54.088Z,18.99
2022-10-22T13:53:26.791Z,19.00
2022-10-22T13:55:55.342Z,19.10
2022-10-22T13:58:24.790Z,19.16
2022-10-22T14:00:57.703Z,19.20
2022-10-22T14:03:31.886Z,19.24
2022-10-22T14:06:00.164Z,19.28
2022-10-22T14:08:28.165Z,19.29
2022-10-22T14:10:56.257Z,19.30
2022-10-22T14:13:23.683Z,19.30
2022-10-22T14:15:52.499Z,19.30
2022-10-22T14:18:31.438Z,19.31
2022-10-22T14:21:09.921Z,19.31
2022-10-22T14:23:38.647Z,19.27
2022-10-22T14:26:24.647Z,19.25
2022-10-22T14:29:11.368Z,19.24
2022-10-22T14:31:45.111Z,19.19
2022-10-22T14:34:15.346Z,19.14
2022-10-22T14:36:46.023Z,19.08
2022-10-22T14:39:14.098Z,19.02
2022-10-22T14:41:42.394Z,18.96
2022-10-22T14:44:13.846Z,18.93
2022-10-22T14:46:43.815Z,18.90
2022-10-22T14:49:11.329Z,18.87
2022-10-22T14:51:39.047Z,18.88
2022-10-22T14:54:06.419Z,18.92
2022-10-22T14:56:33.896Z,18.93
2022-10-22T14:59:01.303Z,18.94
2022-10-22T15:01:28.693Z,18.94
2022-10-22T15:03:56.035Z,18.94
2022-10-22T15:06:23.389Z,18.93
2022-10-22T15:08:51.253Z,18.93
2022-10-22T15:11:18.654Z,18.92
2022-10-22T15:13:45.983Z,18.92
2022-10-22T15:16:16.399Z,18.86
2022-10-22T15:18:44.232Z,18.84
2022-10-22T15:21:20.100Z,18.78
2022-10-22T15:23:48.545Z,18.71
2022-10-22T15:26:25.665Z,18.65
2022-10-22T15:29:04.518Z,18.58
2022-10-22T15:31:51.052Z,18.53
2022-10-22T15:34:22.661Z,18.43
2022-10-22T15:36:51.329Z,18.36
2022-10-22T15:39:18.756Z,18.29
2022-10-22T15:41:47.246Z,18.23
2022-10-22T15:44:33.809Z,18.19
2022-10-22T15:47:04.337Z,18.12
2022-10-22T15:49:32.240Z,18.04
2022-10-22T15:51:59.577Z,17.95
2022-10-22T15:54:29.990Z,17.88
2022-10-22T15:56:59.880Z,17.82
2022-10-22T15:59:27.502Z,17.77
2022-10-22T16:01:54.904Z,17.69
2022-10-22T16:04:22.270Z,17.62
2022-10-22T16:06:52.708Z,17.56
2022-10-22T16:09:26.481Z,17.46
2022-10-22T16:11:55.634Z,17.41
2022-10-22T16:14:24.038Z,17.34
2022-10-22T16:16:55.472Z,17.27
2022-10-22T16:19:24.630Z,17.20
2022-10-22T16:21:55.453Z,17.13
2022-10-22T16:24:23.264Z,17.07
2022-10-22T16:26:52.556Z,16.97
2022-10-22T16:29:19.983Z,16.88
2022-10-22T16:31:47.356Z,16.79
2022-10-22T16:34:14.882Z,16.68
2022-10-22T16:36:44.039Z,16.57
2022-10-22T16:39:11.396Z,16.48
2022-10-22T16:41:38.824Z,16.38
2022-10-22T16:44:08.671Z,16.30
2022-10-22T16:46:38.455Z,16.19
2022-10-22T16:49:07.421Z,16.11
2022-10-22T16:51:35.228Z,16.02
2022-10-22T16:54:04.531Z,15.94
2022-10-22T16:56:36.392Z,15.86
2022-10-22T16:59:03.910Z,15.80
2022-10-22T17:01:31.639Z,15.73
2022-10-22T17:04:00.233Z,15.66
2022-10-22T17:06:27.648Z,15.60
2022-10-22T17:08:55.197Z,15.54
2022-10-22T17:11:24.469Z,15.48
2022-10-22T17:13:54.376Z,15.43
2022-10-22T17:16:24.605Z,15.36
2022-10-22T17:18:54.771Z,15.29
2022-10-22T17:21:24.028Z,15.23
2022-10-22T17:23:59.519Z,15.18
2022-10-22T17:26:27.118Z,15.10
2022-10-22T17:28:55.345Z,15.06
2022-10-22T17:31:32.686Z,14.99
2022-10-22T17:34:00.266Z,14.92
2022-10-22T17:36:33.218Z,14.88
2022-10-22T17:39:07.675Z,14.82
2022-10-22T17:41:37.362Z,14.75
2022-10-22T17:44:09.029Z,14.70
2022-10-22T17:46:37.824Z,14.66
2022-10-22T17:49:15.139Z,14.61
2022-10-22T17:51:42.729Z,14.55
2022-10-22T17:54:10.507Z,14.53
2022-10-22T17:56:40.196Z,14.48
2022-10-22T17:59:11.557Z,14.45
2022-10-22T18:01:45.092Z,14.41
2022-10-22T18:04:19.460Z,14.35
2022-10-22T18:06:48.416Z,14.29
2022-10-22T18:09:19.273Z,14.24
2022-10-22T18:11:49.724Z,14.20
2022-10-22T18:14:19.693Z,14.15
2022-10-22T18:16:48.709Z,14.11
2022-10-22T18:19:19.950Z,14.07
2022-10-22T18:21:47.337Z,14.04
2022-10-22T18:24:15.503Z,14.00
2022-10-22T18:26:43.737Z,13.97
2022-10-22T18:29:17.896Z,13.91
2022-10-22T18:31:45.826Z,13.84
2022-10-22T18:34:13.602Z,13.78
2022-10-22T18:36:41.528Z,13.73
2022-10-22T18:39:15.463Z,13.66
2022-10-22T18:41:43.294Z,13.62
2022-10-22T18:44:13.983Z,13.60
2022-10-22T18:46:41.527Z,13.56
2022-10-22T18:49:18.051Z,13.51
2022-10-22T18:51:48.526Z,13.47
2022-10-22T18:54:23.227Z,13.44
2022-10-22T18:56:55.547Z,13.42
2022-10-22T18:59:27.053Z,13.41
2022-10-22T19:01:59.237Z,13.40
2022-10-22T19:04:33.143Z,13.36
2022-10-22T19:07:00.821Z,13.34
2022-10-22T19:09:29.427Z,13.32
2022-10-22T19:11:56.914Z,13.31
2022-10-22T19:14:24.317Z,13.28
2022-10-22T19:16:52.062Z,13.25
2022-10-22T19:19:21.754Z,13.23
2022-10-22T19:21:49.600Z,13.19
2022-10-22T19:24:19.802Z,13.18
2022-10-22T19:26:48.954Z,13.15
2022-10-22T19:29:19.543Z,13.13
2022-10-22T19:31:48.462Z,13.09
2022-10-22T19:34:15.799Z,13.04
2022-10-22T19:36:43.205Z,13.01
2022-10-22T19:39:10.553Z,12.97
2022-10-22T19:41:37.997Z,12.94
2022-10-22T19:44:05.354Z,12.92
2022-10-22T19:46:33.129Z,12.90
2022-10-22T19:49:02.873Z,12.90
2022-10-22T19:51:33.362Z,12.89
2022-10-22T19:54:04.731Z,12.89
2022-10-22T19:56:34.417Z,12.88
2022-10-22T19:59:03.318Z,12.89
2022-10-22T20:01:31.981Z,12.88
2022-10-22T20:04:00.185Z,12.89
2022-10-22T20:06:28.351Z,12.89
2022-10-22T20:08:56.361Z,12.86
2022-10-22T20:11:29.663Z,12.87
2022-10-22T20:13:58.247Z,12.86
2022-10-22T20:16:29.700Z,12.86
2022-10-22T20:19:03.036Z,12.81
2022-10-22T20:21:31.192Z,12.83
2022-10-22T20:23:59.489Z,12.86
2022-10-22T20:26:28.581Z,12.86
2022-10-22T20:28:57.342Z,12.86
2022-10-22T20:31:29.419Z,12.85
2022-10-22T20:34:01.024Z,12.84
2022-10-22T20:36:30.973Z,12.83
2022-10-22T20:39:13.224Z,12.83
2022-10-22T20:41:41.398Z,12.80
2022-10-22T20:44:18.057Z,12.80
2022-10-22T20:46:45.896Z,12.78
2022-10-22T20:49:16.574Z,12.78
2022-10-22T20:51:44.266Z,12.76
2022-10-22T20:54:14.259Z,12.74
2022-10-22T20:56:43.047Z,12.73
2022-10-22T20:59:12.267Z,12.71
2022-10-22T21:01:48.196Z,12.70
2022-10-22T21:04:18.202Z,12.68
2022-10-22T21:06:46.487Z,12.67
2022-10-22T21:09:15.428Z,12.66
2022-10-22T21:11:43.840Z,12.65
2022-10-22T21:14:14.591Z,12.63
2022-10-22T21:16:45.436Z,12.61
2022-10-22T21:19:13.093Z,12.59
2022-10-22T21:21:45.241Z,12.58
2022-10-22T21:24:12.997Z,12.56
2022-10-22T21:26:42.944Z,12.55
2022-10-22T21:29:12.444Z,12.55
2022-10-22T21:31:40.361Z,12.53
2022-10-22T21:34:07.951Z,12.53
2022-10-22T21:36:35.360Z,12.53
2022-10-22T21:39:03.046Z,12.55
2022-10-22T21:41:30.965Z,12.56
2022-10-22T21:43:59.337Z,12.55
2022-10-22T21:46:28.014Z,12.55
2022-10-22T21:48:58.062Z,12.53
2022-10-22T21:51:28.125Z,12.55
2022-10-22T21:53:55.990Z,12.54
2022-10-22T21:56:30.444Z,12.55
2022-10-22T21:58:58.769Z,12.54
2022-10-22T22:01:26.986Z,12.55
2022-10-22T22:03:54.731Z,12.54
2022-10-22T22:06:28.345Z,12.54
2022-10-22T22:08:59.796Z,12.52
2022-10-22T22:11:28.852Z,12.53
2022-10-22T22:13:58.210Z,12.52
2022-10-22T22:16:30.116Z,12.51
2022-10-22T22:21:39.847Z,12.51
2022-10-22T22:24:10.763Z,12.50
2022-10-22T22:26:39.611Z,12.50
2022-10-22T22:29:07.004Z,12.47
2022-10-22T22:31:35.348Z,12.50
2022-10-22T22:34:07.320Z,12.51
2022-10-22T22:36:39.028Z,12.52
2022-10-22T22:39:08.888Z,12.47
2022-10-22T22:41:36.302Z,12.47
2022-10-22T22:44:03.964Z,12.47
2022-10-22T22:46:31.561Z,12.48
2022-10-22T22:48:58.913Z,12.46
2022-10-22T22:51:32.113Z,12.46
2022-10-22T22:54:02.714Z,12.46
2022-10-22T22:56:32.660Z,12.45
2022-10-22T22:59:00.451Z,12.45
2022-10-22T23:01:41.264Z,12.45
2022-10-22T23:04:18.956Z,12.44
2022-10-22T23:06:46.540Z,12.43
2022-10-22T23:09:16.201Z,12.43
2022-10-22T23:11:46.364Z,12.42
2022-10-22T23:14:17.490Z,12.41
2022-10-22T23:16:49.647Z,12.36
2022-10-22T23:19:22.233Z,12.31
2022-10-22T23:21:55.794Z,12.26
2022-10-22T23:24:28.438Z,12.26
2022-10-22T23:27:00.760Z,12.24
2022-10-22T23:29:32.175Z,12.26
2022-10-22T23:32:02.998Z,12.25
2022-10-22T23:34:31.534Z,12.24
2022-10-22T23:36:59.633Z,12.22
2022-10-22T23:39:29.014Z,12.19
2022-10-22T23:41:57.340Z,12.16
2022-10-22T23:44:25.383Z,12.14
2022-10-22T23:46:52.743Z,12.13
2022-10-22T23:49:20.100Z,12.11
2022-10-22T23:51:47.800Z,12.09
2022-10-22T23:54:22.984Z,12.07
2022-10-22T23:56:50.645Z,12.04
2022-10-22T23:59:25.579Z,12.02
